sensor_id;sensor_type;location;lat;lon;timestamp;P1;durP1;ratioP1;P2;durP2;ratioP2
25854;SDS011;13680;49.936;11.344;2023-11-22T00:01:59;9.65;;;5.63;;
25854;SDS011;13680;49.936;11.344;2023-11-22T00:04:24;10.63;;;5.80;;
25854;SDS011;13680;49.936;11.344;2023-11-22T00:06:50;9.55;;;5.40;;
25854;SDS011;13680;49.936;11.344;2023-11-22T00:09:15;11.40;;;6.43;;
25854;SDS011;13680;49.936;11.344;2023-11-22T00:11:40;8.85;;;6.03;;
25854;SDS011;13680;49.936;11.344;2023-11-22T00:14:06;9.77;;;5.82;;
25854;SDS011;13680;49.936;11.344;2023-11-22T00:16:31;12.35;;;6.47;;
25854;SDS011;13680;49.936;11.344;2023-11-22T00:18:57;9.90;;;6.05;;
25854;SDS011;13680;49.936;11.344;2023-11-22T00:21:22;8.73;;;5.63;;
25854;SDS011;13680;49.936;11.344;2023-11-22T00:23:48;12.30;;;6.18;;
25854;SDS011;13680;49.936;11.344;2023-11-22T00:26:13;9.27;;;5.80;;
25854;SDS011;13680;49.936;11.344;2023-11-22T00:28:38;11.98;;;6.45;;
25854;SDS011;13680;49.936;11.344;2023-11-22T00:31:03;8.82;;;5.57;;
25854;SDS011;13680;49.936;11.344;2023-11-22T00:33:29;10.35;;;6.03;;
25854;SDS011;13680;49.936;11.344;2023-11-22T00:35:56;9.63;;;5.47;;
25854;SDS011;13680;49.936;11.344;2023-11-22T00:38:23;9.93;;;6.32;;
25854;SDS011;13680;49.936;11.344;2023-11-22T00:40:48;10.75;;;6.55;;
25854;SDS011;13680;49.936;11.344;2023-11-22T00:43:15;10.52;;;6.47;;
25854;SDS011;13680;49.936;11.344;2023-11-22T00:45:40;12.77;;;6.78;;
25854;SDS011;13680;49.936;11.344;2023-11-22T00:48:05;10.57;;;6.40;;
25854;SDS011;13680;49.936;11.344;2023-11-22T00:50:31;12.23;;;6.55;;
25854;SDS011;13680;49.936;11.344;2023-11-22T00:52:56;10.75;;;6.35;;
25854;SDS011;13680;49.936;11.344;2023-11-22T00:55:21;11.30;;;6.47;;
25854;SDS011;13680;49.936;11.344;2023-11-22T00:57:47;11.27;;;6.57;;
25854;SDS011;13680;49.936;11.344;2023-11-22T01:00:12;12.63;;;6.70;;
25854;SDS011;13680;49.936;11.344;2023-11-22T01:02:40;11.10;;;6.80;;
25854;SDS011;13680;49.936;11.344;2023-11-22T01:05:06;9.38;;;5.88;;
25854;SDS011;13680;49.936;11.344;2023-11-22T01:07:40;12.05;;;6.53;;
25854;SDS011;13680;49.936;11.344;2023-11-22T01:10:06;11.75;;;6.82;;
25854;SDS011;13680;49.936;11.344;2023-11-22T01:12:32;11.65;;;6.85;;
25854;SDS011;13680;49.936;11.344;2023-11-22T01:14:58;11.27;;;6.85;;
25854;SDS011;13680;49.936;11.344;2023-11-22T01:17:23;10.65;;;5.97;;
25854;SDS011;13680;49.936;11.344;2023-11-22T01:19:49;12.50;;;6.90;;
25854;SDS011;13680;49.936;11.344;2023-11-22T01:22:15;10.30;;;7.22;;
25854;SDS011;13680;49.936;11.344;2023-11-22T01:24:42;11.32;;;6.85;;
25854;SDS011;13680;49.936;11.344;2023-11-22T01:27:07;10.45;;;6.57;;
25854;SDS011;13680;49.936;11.344;2023-11-22T01:29:33;10.48;;;6.70;;
25854;SDS011;13680;49.936;11.344;2023-11-22T01:31:59;13.85;;;7.68;;
25854;SDS011;13680;49.936;11.344;2023-11-22T01:34:25;11.70;;;7.90;;
25854;SDS011;13680;49.936;11.344;2023-11-22T01:36:51;11.23;;;7.15;;
25854;SDS011;13680;49.936;11.344;2023-11-22T01:39:16;12.68;;;7.80;;
25854;SDS011;13680;49.936;11.344;2023-11-22T01:41:44;11.40;;;7.15;;
25854;SDS011;13680;49.936;11.344;2023-11-22T01:44:10;11.57;;;7.45;;
25854;SDS011;13680;49.936;11.344;2023-11-22T01:46:35;11.32;;;7.40;;
25854;SDS011;13680;49.936;11.344;2023-11-22T01:49:02;10.52;;;7.38;;
25854;SDS011;13680;49.936;11.344;2023-11-22T01:51:28;11.65;;;6.85;;
25854;SDS011;13680;49.936;11.344;2023-11-22T01:53:54;11.50;;;6.18;;
25854;SDS011;13680;49.936;11.344;2023-11-22T01:56:24;11.75;;;6.78;;
25854;SDS011;13680;49.936;11.344;2023-11-22T01:58:57;12.45;;;7.50;;
25854;SDS011;13680;49.936;11.344;2023-11-22T02:01:24;12.35;;;7.10;;
25854;SDS011;13680;49.936;11.344;2023-11-22T02:03:53;10.35;;;7.28;;
25854;SDS011;13680;49.936;11.344;2023-11-22T02:06:19;10.70;;;7.15;;
25854;SDS011;13680;49.936;11.344;2023-11-22T02:08:46;10.57;;;6.72;;
25854;SDS011;13680;49.936;11.344;2023-11-22T02:11:12;10.90;;;6.90;;
25854;SDS011;13680;49.936;11.344;2023-11-22T02:13:38;11.55;;;6.90;;
25854;SDS011;13680;49.936;11.344;2023-11-22T02:16:03;11.60;;;6.95;;
25854;SDS011;13680;49.936;11.344;2023-11-22T02:18:29;10.85;;;7.05;;
25854;SDS011;13680;49.936;11.344;2023-11-22T02:20:55;11.25;;;6.47;;
25854;SDS011;13680;49.936;11.344;2023-11-22T02:23:21;12.55;;;7.35;;
25854;SDS011;13680;49.936;11.344;2023-11-22T02:25:47;12.35;;;7.60;;
25854;SDS011;13680;49.936;11.344;2023-11-22T02:28:12;13.98;;;7.70;;
25854;SDS011;13680;49.936;11.344;2023-11-22T02:30:38;13.77;;;8.20;;
25854;SDS011;13680;49.936;11.344;2023-11-22T02:33:03;12.50;;;7.63;;
25854;SDS011;13680;49.936;11.344;2023-11-22T02:35:32;13.98;;;7.82;;
25854;SDS011;13680;49.936;11.344;2023-11-22T02:37:58;12.15;;;7.40;;
25854;SDS011;13680;49.936;11.344;2023-11-22T02:40:24;11.70;;;7.20;;
25854;SDS011;13680;49.936;11.344;2023-11-22T02:42:50;12.57;;;7.80;;
25854;SDS011;13680;49.936;11.344;2023-11-22T02:45:19;14.52;;;7.85;;
25854;SDS011;13680;49.936;11.344;2023-11-22T02:47:48;13.90;;;8.13;;
25854;SDS011;13680;49.936;11.344;2023-11-22T02:50:14;13.60;;;8.32;;
25854;SDS011;13680;49.936;11.344;2023-11-22T02:52:41;13.65;;;8.27;;
25854;SDS011;13680;49.936;11.344;2023-11-22T02:55:07;13.45;;;8.70;;
25854;SDS011;13680;49.936;11.344;2023-11-22T02:57:34;15.73;;;9.05;;
25854;SDS011;13680;49.936;11.344;2023-11-22T03:00:01;12.68;;;7.75;;
25854;SDS011;13680;49.936;11.344;2023-11-22T03:02:29;17.55;;;9.75;;
25854;SDS011;13680;49.936;11.344;2023-11-22T03:04:55;15.23;;;8.60;;
25854;SDS011;13680;49.936;11.344;2023-11-22T03:07:21;13.65;;;8.32;;
25854;SDS011;13680;49.936;11.344;2023-11-22T03:09:46;17.13;;;8.88;;
25854;SDS011;13680;49.936;11.344;2023-11-22T03:12:12;16.50;;;9.30;;
25854;SDS011;13680;49.936;11.344;2023-11-22T03:14:38;19.27;;;9.68;;
25854;SDS011;13680;49.936;11.344;2023-11-22T03:17:03;19.40;;;9.95;;
25854;SDS011;13680;49.936;11.344;2023-11-22T03:19:29;19.45;;;10.02;;
25854;SDS011;13680;49.936;11.344;2023-11-22T03:21:54;18.75;;;10.70;;
25854;SDS011;13680;49.936;11.344;2023-11-22T03:24:21;19.73;;;10.80;;
25854;SDS011;13680;49.936;11.344;2023-11-22T03:26:47;19.08;;;10.73;;
25854;SDS011;13680;49.936;11.344;2023-11-22T03:29:13;19.05;;;10.52;;
25854;SDS011;13680;49.936;11.344;2023-11-22T03:31:41;22.35;;;12.43;;
25854;SDS011;13680;49.936;11.344;2023-11-22T03:34:07;20.70;;;11.27;;
25854;SDS011;13680;49.936;11.344;2023-11-22T03:36:32;19.10;;;11.45;;
25854;SDS011;13680;49.936;11.344;2023-11-22T03:38:58;22.00;;;12.32;;
25854;SDS011;13680;49.936;11.344;2023-11-22T03:41:23;21.75;;;12.70;;
25854;SDS011;13680;49.936;11.344;2023-11-22T03:43:48;24.77;;;12.68;;
25854;SDS011;13680;49.936;11.344;2023-11-22T03:46:14;20.98;;;12.00;;
25854;SDS011;13680;49.936;11.344;2023-11-22T03:48:39;27.52;;;13.80;;
25854;SDS011;13680;49.936;11.344;2023-11-22T03:51:04;23.98;;;13.68;;
25854;SDS011;13680;49.936;11.344;2023-11-22T03:53:30;26.00;;;14.40;;
25854;SDS011;13680;49.936;11.344;2023-11-22T03:55:55;23.10;;;13.07;;
25854;SDS011;13680;49.936;11.344;2023-11-22T03:58:21;29.70;;;13.43;;
25854;SDS011;13680;49.936;11.344;2023-11-22T04:00:46;23.90;;;12.25;;
25854;SDS011;13680;49.936;11.344;2023-11-22T04:03:12;25.30;;;13.82;;
25854;SDS011;13680;49.936;11.344;2023-11-22T04:05:37;23.08;;;13.20;;
25854;SDS011;13680;49.936;11.344;2023-11-22T04:08:03;22.90;;;13.05;;
25854;SDS011;13680;49.936;11.344;2023-11-22T04:10:29;23.98;;;12.80;;
25854;SDS011;13680;49.936;11.344;2023-11-22T04:12:55;22.90;;;13.20;;
25854;SDS011;13680;49.936;11.344;2023-11-22T04:15:21;22.15;;;13.00;;
25854;SDS011;13680;49.936;11.344;2023-11-22T04:17:46;22.35;;;12.30;;
25854;SDS011;13680;49.936;11.344;2023-11-22T04:20:12;24.20;;;12.25;;
25854;SDS011;13680;49.936;11.344;2023-11-22T04:22:42;21.00;;;12.23;;
25854;SDS011;13680;49.936;11.344;2023-11-22T04:25:10;21.40;;;12.07;;
25854;SDS011;13680;49.936;11.344;2023-11-22T04:27:38;22.77;;;12.57;;
25854;SDS011;13680;49.936;11.344;2023-11-22T04:30:05;20.77;;;11.68;;
25854;SDS011;13680;49.936;11.344;2023-11-22T04:32:39;24.00;;;11.05;;
25854;SDS011;13680;49.936;11.344;2023-11-22T04:35:07;24.00;;;12.35;;
25854;SDS011;13680;49.936;11.344;2023-11-22T04:37:34;22.35;;;11.70;;
25854;SDS011;13680;49.936;11.344;2023-11-22T04:40:00;22.02;;;12.07;;
25854;SDS011;13680;49.936;11.344;2023-11-22T04:42:26;24.70;;;12.25;;
25854;SDS011;13680;49.936;11.344;2023-11-22T04:44:52;22.23;;;12.18;;
25854;SDS011;13680;49.936;11.344;2023-11-22T04:47:19;23.35;;;12.40;;
25854;SDS011;13680;49.936;11.344;2023-11-22T04:49:44;21.92;;;12.18;;
25854;SDS011;13680;49.936;11.344;2023-11-22T04:52:09;22.25;;;12.20;;
25854;SDS011;13680;49.936;11.344;2023-11-22T04:54:35;25.27;;;12.77;;
25854;SDS011;13680;49.936;11.344;2023-11-22T04:57:00;24.30;;;12.27;;
25854;SDS011;13680;49.936;11.344;2023-11-22T04:59:25;21.25;;;11.45;;
25854;SDS011;13680;49.936;11.344;2023-11-22T05:01:51;26.00;;;13.88;;
25854;SDS011;13680;49.936;11.344;2023-11-22T05:04:16;23.73;;;12.18;;
25854;SDS011;13680;49.936;11.344;2023-11-22T05:06:43;25.33;;;13.10;;
25854;SDS011;13680;49.936;11.344;2023-11-22T05:09:09;25.67;;;13.32;;
25854;SDS011;13680;49.936;11.344;2023-11-22T05:11:36;23.05;;;12.50;;
25854;SDS011;13680;49.936;11.344;2023-11-22T05:14:01;24.83;;;12.65;;
25854;SDS011;13680;49.936;11.344;2023-11-22T05:16:26;25.15;;;12.93;;
25854;SDS011;13680;49.936;11.344;2023-11-22T05:18:51;24.00;;;12.20;;
25854;SDS011;13680;49.936;11.344;2023-11-22T05:21:17;27.23;;;12.75;;
25854;SDS011;13680;49.936;11.344;2023-11-22T05:23:43;22.52;;;12.02;;
25854;SDS011;13680;49.936;11.344;2023-11-22T05:26:08;24.75;;;13.50;;
25854;SDS011;13680;49.936;11.344;2023-11-22T05:28:33;22.80;;;12.32;;
25854;SDS011;13680;49.936;11.344;2023-11-22T05:30:59;26.80;;;14.05;;
25854;SDS011;13680;49.936;11.344;2023-11-22T05:33:24;21.50;;;12.75;;
25854;SDS011;13680;49.936;11.344;2023-11-22T05:35:49;23.20;;;12.30;;
25854;SDS011;13680;49.936;11.344;2023-11-22T05:38:15;24.95;;;13.30;;
25854;SDS011;13680;49.936;11.344;2023-11-22T05:40:40;25.27;;;12.68;;
25854;SDS011;13680;49.936;11.344;2023-11-22T05:43:07;25.45;;;12.60;;
25854;SDS011;13680;49.936;11.344;2023-11-22T05:45:33;24.27;;;12.45;;
25854;SDS011;13680;49.936;11.344;2023-11-22T05:47:59;21.30;;;11.20;;
25854;SDS011;13680;49.936;11.344;2023-11-22T05:50:25;24.00;;;12.07;;
25854;SDS011;13680;49.936;11.344;2023-11-22T05:52:50;20.45;;;11.30;;
25854;SDS011;13680;49.936;11.344;2023-11-22T05:55:16;19.38;;;11.50;;
25854;SDS011;13680;49.936;11.344;2023-11-22T05:57:43;24.23;;;13.13;;
25854;SDS011;13680;49.936;11.344;2023-11-22T06:00:09;19.58;;;11.27;;
25854;SDS011;13680;49.936;11.344;2023-11-22T06:02:35;20.90;;;11.63;;
25854;SDS011;13680;49.936;11.344;2023-11-22T06:05:02;22.33;;;12.38;;
25854;SDS011;13680;49.936;11.344;2023-11-22T06:07:28;23.23;;;12.57;;
25854;SDS011;13680;49.936;11.344;2023-11-22T06:09:54;23.30;;;12.07;;
25854;SDS011;13680;49.936;11.344;2023-11-22T06:12:19;22.75;;;10.95;;
25854;SDS011;13680;49.936;11.344;2023-11-22T06:14:46;25.88;;;14.05;;
25854;SDS011;13680;49.936;11.344;2023-11-22T06:17:11;22.38;;;13.13;;
25854;SDS011;13680;49.936;11.344;2023-11-22T06:19:37;25.10;;;14.48;;
25854;SDS011;13680;49.936;11.344;2023-11-22T06:22:02;21.27;;;12.57;;
25854;SDS011;13680;49.936;11.344;2023-11-22T06:24:28;19.55;;;12.25;;
25854;SDS011;13680;49.936;11.344;2023-11-22T06:26:53;27.02;;;13.27;;
25854;SDS011;13680;49.936;11.344;2023-11-22T06:29:19;22.38;;;12.43;;
25854;SDS011;13680;49.936;11.344;2023-11-22T06:31:45;25.83;;;13.02;;
25854;SDS011;13680;49.936;11.344;2023-11-22T06:34:10;22.80;;;11.98;;
25854;SDS011;13680;49.936;11.344;2023-11-22T06:36:37;21.27;;;12.32;;
25854;SDS011;13680;49.936;11.344;2023-11-22T06:39:02;25.88;;;11.70;;
25854;SDS011;13680;49.936;11.344;2023-11-22T06:41:29;23.98;;;12.73;;
25854;SDS011;13680;49.936;11.344;2023-11-22T06:43:54;25.20;;;15.63;;
25854;SDS011;13680;49.936;11.344;2023-11-22T06:46:19;23.10;;;12.65;;
25854;SDS011;13680;49.936;11.344;2023-11-22T06:48:45;24.60;;;12.57;;
25854;SDS011;13680;49.936;11.344;2023-11-22T06:51:10;24.75;;;12.13;;
25854;SDS011;13680;49.936;11.344;2023-11-22T06:53:35;21.00;;;11.82;;
25854;SDS011;13680;49.936;11.344;2023-11-22T06:56:01;20.00;;;11.32;;
25854;SDS011;13680;49.936;11.344;2023-11-22T06:58:27;20.25;;;11.75;;
25854;SDS011;13680;49.936;11.344;2023-11-22T07:00:52;22.50;;;12.23;;
25854;SDS011;13680;49.936;11.344;2023-11-22T07:03:17;20.80;;;10.65;;
25854;SDS011;13680;49.936;11.344;2023-11-22T07:05:43;20.90;;;10.15;;
25854;SDS011;13680;49.936;11.344;2023-11-22T07:08:09;19.77;;;11.20;;
25854;SDS011;13680;49.936;11.344;2023-11-22T07:10:37;22.33;;;11.35;;
25854;SDS011;13680;49.936;11.344;2023-11-22T07:13:03;18.98;;;10.38;;
25854;SDS011;13680;49.936;11.344;2023-11-22T07:15:28;19.83;;;10.68;;
25854;SDS011;13680;49.936;11.344;2023-11-22T07:17:54;21.30;;;11.13;;
25854;SDS011;13680;49.936;11.344;2023-11-22T07:20:20;17.88;;;9.90;;
25854;SDS011;13680;49.936;11.344;2023-11-22T07:22:45;18.52;;;9.23;;
25854;SDS011;13680;49.936;11.344;2023-11-22T07:25:11;16.05;;;9.95;;
25854;SDS011;13680;49.936;11.344;2023-11-22T07:27:46;18.02;;;10.38;;
25854;SDS011;13680;49.936;11.344;2023-11-22T07:30:15;17.15;;;9.32;;
25854;SDS011;13680;49.936;11.344;2023-11-22T07:32:41;15.82;;;9.68;;
25854;SDS011;13680;49.936;11.344;2023-11-22T07:35:07;14.70;;;8.10;;
25854;SDS011;13680;49.936;11.344;2023-11-22T07:37:37;20.25;;;10.25;;
25854;SDS011;13680;49.936;11.344;2023-11-22T07:40:07;16.55;;;8.05;;
25854;SDS011;13680;49.936;11.344;2023-11-22T07:42:35;24.10;;;11.35;;
25854;SDS011;13680;49.936;11.344;2023-11-22T07:45:00;14.57;;;8.48;;
25854;SDS011;13680;49.936;11.344;2023-11-22T07:47:26;16.35;;;8.82;;
25854;SDS011;13680;49.936;11.344;2023-11-22T07:49:53;17.17;;;9.95;;
25854;SDS011;13680;49.936;11.344;2023-11-22T07:52:20;17.33;;;9.05;;
25854;SDS011;13680;49.936;11.344;2023-11-22T07:54:46;15.90;;;8.73;;
25854;SDS011;13680;49.936;11.344;2023-11-22T07:57:12;16.48;;;9.07;;
25854;SDS011;13680;49.936;11.344;2023-11-22T07:59:38;14.48;;;8.82;;
25854;SDS011;13680;49.936;11.344;2023-11-22T08:02:04;15.35;;;8.02;;
25854;SDS011;13680;49.936;11.344;2023-11-22T08:04:36;19.20;;;9.27;;
25854;SDS011;13680;49.936;11.344;2023-11-22T08:07:01;16.33;;;8.93;;
25854;SDS011;13680;49.936;11.344;2023-11-22T08:09:26;14.45;;;8.60;;
25854;SDS011;13680;49.936;11.344;2023-11-22T08:11:56;16.02;;;8.60;;
25854;SDS011;13680;49.936;11.344;2023-11-22T08:14:21;14.02;;;9.35;;
25854;SDS011;13680;49.936;11.344;2023-11-22T08:16:46;16.48;;;8.70;;
25854;SDS011;13680;49.936;11.344;2023-11-22T08:19:12;15.35;;;8.20;;
25854;SDS011;13680;49.936;11.344;2023-11-22T08:21:37;19.30;;;9.57;;
25854;SDS011;13680;49.936;11.344;2023-11-22T08:24:04;18.85;;;8.73;;
25854;SDS011;13680;49.936;11.344;2023-11-22T08:26:29;16.02;;;9.93;;
25854;SDS011;13680;49.936;11.344;2023-11-22T08:28:54;16.58;;;9.23;;
25854;SDS011;13680;49.936;11.344;2023-11-22T08:31:20;17.70;;;9.48;;
25854;SDS011;13680;49.936;11.344;2023-11-22T08:33:46;16.95;;;9.57;;
25854;SDS011;13680;49.936;11.344;2023-11-22T08:36:11;18.98;;;10.30;;
25854;SDS011;13680;49.936;11.344;2023-11-22T08:38:36;15.10;;;8.95;;
25854;SDS011;13680;49.936;11.344;2023-11-22T08:41:06;17.25;;;8.95;;
25854;SDS011;13680;49.936;11.344;2023-11-22T08:43:32;18.80;;;9.38;;
25854;SDS011;13680;49.936;11.344;2023-11-22T08:45:58;17.38;;;9.20;;
25854;SDS011;13680;49.936;11.344;2023-11-22T08:48:24;16.67;;;9.15;;
25854;SDS011;13680;49.936;11.344;2023-11-22T08:50:49;16.85;;;9.25;;
25854;SDS011;13680;49.936;11.344;2023-11-22T08:53:15;19.85;;;10.82;;
25854;SDS011;13680;49.936;11.344;2023-11-22T08:55:42;16.63;;;9.32;;
25854;SDS011;13680;49.936;11.344;2023-11-22T08:58:09;15.95;;;8.95;;
25854;SDS011;13680;49.936;11.344;2023-11-22T09:00:35;14.73;;;9.40;;
25854;SDS011;13680;49.936;11.344;2023-11-22T09:03:00;20.13;;;9.95;;
25854;SDS011;13680;49.936;11.344;2023-11-22T09:05:28;17.13;;;10.10;;
25854;SDS011;13680;49.936;11.344;2023-11-22T09:07:53;23.02;;;10.70;;
25854;SDS011;13680;49.936;11.344;2023-11-22T09:10:20;16.02;;;9.32;;
25854;SDS011;13680;49.936;11.344;2023-11-22T09:12:47;18.25;;;9.50;;
25854;SDS011;13680;49.936;11.344;2023-11-22T09:15:13;16.35;;;9.57;;
25854;SDS011;13680;49.936;11.344;2023-11-22T09:17:43;18.33;;;10.68;;
25854;SDS011;13680;49.936;11.344;2023-11-22T09:20:09;17.70;;;10.23;;
25854;SDS011;13680;49.936;11.344;2023-11-22T09:22:41;17.10;;;9.30;;
25854;SDS011;13680;49.936;11.344;2023-11-22T09:25:11;18.55;;;10.10;;
25854;SDS011;13680;49.936;11.344;2023-11-22T09:27:37;19.33;;;10.45;;
25854;SDS011;13680;49.936;11.344;2023-11-22T09:30:03;16.67;;;10.02;;
25854;SDS011;13680;49.936;11.344;2023-11-22T09:32:30;18.88;;;9.27;;
25854;SDS011;13680;49.936;11.344;2023-11-22T09:34:55;19.10;;;9.52;;
25854;SDS011;13680;49.936;11.344;2023-11-22T09:37:23;17.75;;;9.68;;
25854;SDS011;13680;49.936;11.344;2023-11-22T09:39:49;14.82;;;9.43;;
25854;SDS011;13680;49.936;11.344;2023-11-22T09:42:15;16.08;;;8.65;;
25854;SDS011;13680;49.936;11.344;2023-11-22T09:44:40;15.10;;;8.27;;
25854;SDS011;13680;49.936;11.344;2023-11-22T09:47:06;16.75;;;9.27;;
25854;SDS011;13680;49.936;11.344;2023-11-22T09:49:31;14.65;;;8.48;;
25854;SDS011;13680;49.936;11.344;2023-11-22T09:51:57;19.70;;;8.65;;
25854;SDS011;13680;49.936;11.344;2023-11-22T09:54:28;18.73;;;8.63;;
25854;SDS011;13680;49.936;11.344;2023-11-22T09:56:56;15.27;;;8.40;;
25854;SDS011;13680;49.936;11.344;2023-11-22T09:59:26;13.05;;;7.78;;
25854;SDS011;13680;49.936;11.344;2023-11-22T10:01:53;13.98;;;8.40;;
25854;SDS011;13680;49.936;11.344;2023-11-22T10:04:19;13.60;;;8.07;;
25854;SDS011;13680;49.936;11.344;2023-11-22T10:06:45;14.00;;;8.00;;
25854;SDS011;13680;49.936;11.344;2023-11-22T10:09:11;13.55;;;7.63;;
25854;SDS011;13680;49.936;11.344;2023-11-22T10:11:39;12.32;;;7.78;;
25854;SDS011;13680;49.936;11.344;2023-11-22T10:14:09;16.17;;;8.68;;
25854;SDS011;13680;49.936;11.344;2023-11-22T10:16:34;13.27;;;7.63;;
25854;SDS011;13680;49.936;11.344;2023-11-22T10:19:00;13.27;;;7.65;;
25854;SDS011;13680;49.936;11.344;2023-11-22T10:21:26;15.00;;;8.48;;
25854;SDS011;13680;49.936;11.344;2023-11-22T10:23:56;15.10;;;8.80;;
25854;SDS011;13680;49.936;11.344;2023-11-22T10:26:25;14.35;;;7.43;;
25854;SDS011;13680;49.936;11.344;2023-11-22T10:28:52;15.02;;;7.43;;
25854;SDS011;13680;49.936;11.344;2023-11-22T10:31:18;13.27;;;7.65;;
25854;SDS011;13680;49.936;11.344;2023-11-22T10:33:47;15.23;;;8.07;;
25854;SDS011;13680;49.936;11.344;2023-11-22T10:36:13;11.88;;;7.30;;
25854;SDS011;13680;49.936;11.344;2023-11-22T10:38:39;15.77;;;7.35;;
25854;SDS011;13680;49.936;11.344;2023-11-22T10:41:09;14.98;;;7.05;;
25854;SDS011;13680;49.936;11.344;2023-11-22T10:43:35;13.38;;;7.57;;
25854;SDS011;13680;49.936;11.344;2023-11-22T10:46:04;12.57;;;6.97;;
25854;SDS011;13680;49.936;11.344;2023-11-22T10:48:31;13.05;;;7.45;;
25854;SDS011;13680;49.936;11.344;2023-11-22T10:51:01;15.98;;;7.20;;
25854;SDS011;13680;49.936;11.344;2023-11-22T10:56:04;11.57;;;6.97;;
25854;SDS011;13680;49.936;11.344;2023-11-22T10:58:36;12.88;;;9.02;;
25854;SDS011;13680;49.936;11.344;2023-11-22T11:01:09;12.40;;;8.25;;
25854;SDS011;13680;49.936;11.344;2023-11-22T11:03:36;13.10;;;7.78;;
25854;SDS011;13680;49.936;11.344;2023-11-22T11:06:07;11.35;;;6.68;;
25854;SDS011;13680;49.936;11.344;2023-11-22T11:08:38;12.52;;;7.78;;
25854;SDS011;13680;49.936;11.344;2023-11-22T11:11:04;12.63;;;7.18;;
25854;SDS011;13680;49.936;11.344;2023-11-22T11:13:31;11.70;;;7.55;;
25854;SDS011;13680;49.936;11.344;2023-11-22T11:15:56;11.80;;;6.40;;
25854;SDS011;13680;49.936;11.344;2023-11-22T11:18:23;11.23;;;6.15;;
25854;SDS011;13680;49.936;11.344;2023-11-22T11:20:56;10.27;;;6.93;;
25854;SDS011;13680;49.936;11.344;2023-11-22T11:23:24;12.00;;;6.65;;
25854;SDS011;13680;49.936;11.344;2023-11-22T11:25:57;15.15;;;8.52;;
25854;SDS011;13680;49.936;11.344;2023-11-22T11:28:41;13.27;;;7.75;;
25854;SDS011;13680;49.936;11.344;2023-11-22T11:31:08;15.75;;;8.25;;
25854;SDS011;13680;49.936;11.344;2023-11-22T11:33:34;13.15;;;6.57;;
25854;SDS011;13680;49.936;11.344;2023-11-22T11:36:28;10.33;;;5.87;;
25854;SDS011;13680;49.936;11.344;2023-11-22T11:38:57;14.25;;;8.25;;
25854;SDS011;13680;49.936;11.344;2023-11-22T11:41:26;13.60;;;6.32;;
25854;SDS011;13680;49.936;11.344;2023-11-22T11:43:53;9.95;;;6.47;;
25854;SDS011;13680;49.936;11.344;2023-11-22T11:46:20;13.10;;;6.20;;
25854;SDS011;13680;49.936;11.344;2023-11-22T11:48:48;18.13;;;7.80;;
25854;SDS011;13680;49.936;11.344;2023-11-22T11:51:15;11.95;;;7.20;;
25854;SDS011;13680;49.936;11.344;2023-11-22T11:53:46;12.15;;;7.18;;
25854;SDS011;13680;49.936;11.344;2023-11-22T11:56:12;12.60;;;6.95;;
25854;SDS011;13680;49.936;11.344;2023-11-22T11:58:38;11.70;;;6.75;;
25854;SDS011;13680;49.936;11.344;2023-11-22T12:01:05;11.70;;;6.40;;
25854;SDS011;13680;49.936;11.344;2023-11-22T12:03:32;12.95;;;7.13;;
25854;SDS011;13680;49.936;11.344;2023-11-22T12:05:57;13.55;;;7.07;;
25854;SDS011;13680;49.936;11.344;2023-11-22T12:08:23;12.13;;;6.63;;
25854;SDS011;13680;49.936;11.344;2023-11-22T12:10:48;13.27;;;7.10;;
25854;SDS011;13680;49.936;11.344;2023-11-22T12:13:20;14.40;;;6.60;;
25854;SDS011;13680;49.936;11.344;2023-11-22T12:15:48;13.18;;;7.45;;
25854;SDS011;13680;49.936;11.344;2023-11-22T12:18:15;13.43;;;7.28;;
25854;SDS011;13680;49.936;11.344;2023-11-22T12:20:42;11.95;;;7.38;;
25854;SDS011;13680;49.936;11.344;2023-11-22T12:23:20;16.45;;;11.10;;
25854;SDS011;13680;49.936;11.344;2023-11-22T12:25:46;18.63;;;10.18;;
25854;SDS011;13680;49.936;11.344;2023-11-22T12:28:15;14.45;;;7.00;;
25854;SDS011;13680;49.936;11.344;2023-11-22T12:30:42;13.07;;;7.70;;
25854;SDS011;13680;49.936;11.344;2023-11-22T12:33:08;13.02;;;6.65;;
25854;SDS011;13680;49.936;11.344;2023-11-22T12:35:38;10.98;;;7.07;;
25854;SDS011;13680;49.936;11.344;2023-11-22T12:38:05;15.05;;;7.22;;
25854;SDS011;13680;49.936;11.344;2023-11-22T12:40:33;12.25;;;6.88;;
25854;SDS011;13680;49.936;11.344;2023-11-22T12:42:59;12.30;;;7.35;;
25854;SDS011;13680;49.936;11.344;2023-11-22T12:45:26;16.25;;;7.82;;
25854;SDS011;13680;49.936;11.344;2023-11-22T12:47:54;11.43;;;6.80;;
25854;SDS011;13680;49.936;11.344;2023-11-22T12:50:29;14.25;;;7.38;;
25854;SDS011;13680;49.936;11.344;2023-11-22T12:52:56;13.48;;;7.50;;
25854;SDS011;13680;49.936;11.344;2023-11-22T12:55:25;12.25;;;7.13;;
25854;SDS011;13680;49.936;11.344;2023-11-22T12:57:57;12.77;;;7.28;;
25854;SDS011;13680;49.936;11.344;2023-11-22T13:00:24;15.48;;;7.25;;
25854;SDS011;13680;49.936;11.344;2023-11-22T13:02:50;12.32;;;7.38;;
25854;SDS011;13680;49.936;11.344;2023-11-22T13:05:15;15.63;;;7.95;;
25854;SDS011;13680;49.936;11.344;2023-11-22T13:07:41;16.00;;;7.25;;
25854;SDS011;13680;49.936;11.344;2023-11-22T13:10:08;13.07;;;7.63;;
25854;SDS011;13680;49.936;11.344;2023-11-22T13:12:34;11.85;;;6.78;;
25854;SDS011;13680;49.936;11.344;2023-11-22T13:15:00;12.68;;;7.82;;
25854;SDS011;13680;49.936;11.344;2023-11-22T13:17:25;13.13;;;7.30;;
25854;SDS011;13680;49.936;11.344;2023-11-22T13:19:51;12.25;;;7.47;;
25854;SDS011;13680;49.936;11.344;2023-11-22T13:22:16;15.45;;;7.93;;
25854;SDS011;13680;49.936;11.344;2023-11-22T13:24:41;12.73;;;7.40;;
25854;SDS011;13680;49.936;11.344;2023-11-22T13:27:09;13.95;;;8.15;;
25854;SDS011;13680;49.936;11.344;2023-11-22T13:29:34;12.90;;;6.80;;
25854;SDS011;13680;49.936;11.344;2023-11-22T13:32:00;11.23;;;6.88;;
25854;SDS011;13680;49.936;11.344;2023-11-22T13:34:25;10.75;;;6.35;;
25854;SDS011;13680;49.936;11.344;2023-11-22T13:36:50;12.45;;;7.25;;
25854;SDS011;13680;49.936;11.344;2023-11-22T13:39:16;9.93;;;5.97;;
25854;SDS011;13680;49.936;11.344;2023-11-22T13:41:41;13.65;;;6.88;;
25854;SDS011;13680;49.936;11.344;2023-11-22T13:44:07;14.10;;;7.65;;
25854;SDS011;13680;49.936;11.344;2023-11-22T13:46:32;11.10;;;6.40;;
25854;SDS011;13680;49.936;11.344;2023-11-22T13:48:58;14.55;;;8.25;;
25854;SDS011;13680;49.936;11.344;2023-11-22T13:51:23;13.18;;;7.35;;
25854;SDS011;13680;49.936;11.344;2023-11-22T13:53:50;12.35;;;7.45;;
25854;SDS011;13680;49.936;11.344;2023-11-22T13:56:18;13.25;;;7.63;;
25854;SDS011;13680;49.936;11.344;2023-11-22T13:58:44;12.43;;;8.00;;
25854;SDS011;13680;49.936;11.344;2023-11-22T14:01:09;14.75;;;8.55;;
25854;SDS011;13680;49.936;11.344;2023-11-22T14:03:40;11.63;;;7.45;;
25854;SDS011;13680;49.936;11.344;2023-11-22T14:06:05;11.27;;;6.20;;
25854;SDS011;13680;49.936;11.344;2023-11-22T14:08:31;11.45;;;7.25;;
25854;SDS011;13680;49.936;11.344;2023-11-22T14:10:57;15.00;;;9.18;;
25854;SDS011;13680;49.936;11.344;2023-11-22T14:13:22;11.65;;;6.97;;
25854;SDS011;13680;49.936;11.344;2023-11-22T14:15:47;14.63;;;8.95;;
25854;SDS011;13680;49.936;11.344;2023-11-22T14:18:13;18.42;;;12.20;;